sensor_id;sensor_type;location;lat;lon;timestamp;P1;durP1;ratioP1;P2;durP2;ratioP2
10509;SDS011;5303;53.266;10.410;2022-09-13T00:00:24;4.17;;;3.77;;
10509;SDS011;5303;53.266;10.410;2022-09-13T00:02:49;4.23;;;3.60;;
10509;SDS011;5303;53.266;10.410;2022-09-13T00:05:15;4.47;;;4.03;;
10509;SDS011;5303;53.266;10.410;2022-09-13T00:07:41;4.83;;;3.90;;
10509;SDS011;5303;53.266;10.410;2022-09-13T00:10:06;4.63;;;3.90;;
10509;SDS011;5303;53.266;10.410;2022-09-13T00:12:31;4.23;;;3.83;;
10509;SDS011;5303;53.266;10.410;2022-09-13T00:14:57;4.83;;;3.80;;
10509;SDS011;5303;53.266;10.410;2022-09-13T00:17:22;4.53;;;4.03;;
10509;SDS011;5303;53.266;10.410;2022-09-13T00:19:47;5.97;;;3.90;;
10509;SDS011;5303;53.266;10.410;2022-09-13T00:22:13;4.43;;;4.03;;
10509;SDS011;5303;53.266;10.410;2022-09-13T00:24:38;5.23;;;4.07;;
10509;SDS011;5303;53.266;10.410;2022-09-13T00:27:03;4.70;;;4.00;;
10509;SDS011;5303;53.266;10.410;2022-09-13T00:29:28;4.27;;;3.87;;
10509;SDS011;5303;53.266;10.410;2022-09-13T00:31:54;6.07;;;4.07;;
10509;SDS011;5303;53.266;10.410;2022-09-13T00:34:19;3.73;;;3.43;;
10509;SDS011;5303;53.266;10.410;2022-09-13T00:36:44;4.73;;;3.67;;
10509;SDS011;5303;53.266;10.410;2022-09-13T00:39:10;4.17;;;3.77;;
10509;SDS011;5303;53.266;10.410;2022-09-13T00:41:36;4.67;;;4.00;;
10509;SDS011;5303;53.266;10.410;2022-09-13T00:44:02;4.20;;;3.80;;
10509;SDS011;5303;53.266;10.410;2022-09-13T00:51:36;3.80;;;3.50;;
10509;SDS011;5303;53.266;10.410;2022-09-13T00:54:02;4.50;;;3.67;;
10509;SDS011;5303;53.266;10.410;2022-09-13T00:56:33;6.83;;;4.20;;
10509;SDS011;5303;53.266;10.410;2022-09-13T00:59:07;4.30;;;3.87;;
10509;SDS011;5303;53.266;10.410;2022-09-13T01:01:44;4.53;;;3.77;;
10509;SDS011;5303;53.266;10.410;2022-09-13T01:04:15;4.10;;;3.70;;
10509;SDS011;5303;53.266;10.410;2022-09-13T01:06:43;4.00;;;3.70;;
10509;SDS011;5303;53.266;10.410;2022-09-13T01:09:10;5.23;;;3.70;;
10509;SDS011;5303;53.266;10.410;2022-09-13T01:14:14;5.70;;;3.90;;
10509;SDS011;5303;53.266;10.410;2022-09-13T01:16:41;3.93;;;3.57;;
10509;SDS011;5303;53.266;10.410;2022-09-13T01:19:07;4.60;;;3.57;;
10509;SDS011;5303;53.266;10.410;2022-09-13T01:40:47;5.30;;;4.50;;
10509;SDS011;5303;53.266;10.410;2022-09-13T01:43:32;8.83;;;5.00;;
10509;SDS011;5303;53.266;10.410;2022-09-13T01:46:23;5.53;;;4.30;;
10509;SDS011;5303;53.266;10.410;2022-09-13T01:49:13;6.27;;;4.50;;
10509;SDS011;5303;53.266;10.410;2022-09-13T01:54:25;5.90;;;4.00;;
10509;SDS011;5303;53.266;10.410;2022-09-13T01:59:53;5.57;;;4.30;;
10509;SDS011;5303;53.266;10.410;2022-09-13T02:02:29;6.57;;;4.60;;
10509;SDS011;5303;53.266;10.410;2022-09-13T02:05:01;5.37;;;4.87;;
10509;SDS011;5303;53.266;10.410;2022-09-13T02:07:33;5.73;;;4.57;;
10509;SDS011;5303;53.266;10.410;2022-09-13T02:10:08;7.07;;;6.13;;
10509;SDS011;5303;53.266;10.410;2022-09-13T02:12:39;6.33;;;5.57;;
10509;SDS011;5303;53.266;10.410;2022-09-13T02:15:15;7.33;;;5.43;;
10509;SDS011;5303;53.266;10.410;2022-09-13T02:17:46;8.43;;;5.70;;
10509;SDS011;5303;53.266;10.410;2022-09-13T02:20:17;6.40;;;5.73;;
10509;SDS011;5303;53.266;10.410;2022-09-13T02:22:49;8.97;;;6.40;;
10509;SDS011;5303;53.266;10.410;2022-09-13T02:25:18;8.60;;;6.60;;
10509;SDS011;5303;53.266;10.410;2022-09-13T02:27:47;7.07;;;6.33;;
10509;SDS011;5303;53.266;10.410;2022-09-13T02:30:15;7.17;;;6.47;;
10509;SDS011;5303;53.266;10.410;2022-09-13T02:32:43;7.63;;;6.20;;
10509;SDS011;5303;53.266;10.410;2022-09-13T02:35:16;6.50;;;5.77;;
10509;SDS011;5303;53.266;10.410;2022-09-13T02:37:43;7.67;;;6.63;;
10509;SDS011;5303;53.266;10.410;2022-09-13T02:40:18;7.50;;;6.70;;
10509;SDS011;5303;53.266;10.410;2022-09-13T02:42:57;7.93;;;6.40;;
10509;SDS011;5303;53.266;10.410;2022-09-13T02:45:30;8.30;;;7.33;;
10509;SDS011;5303;53.266;10.410;2022-09-13T02:48:02;8.97;;;6.97;;
10509;SDS011;5303;53.266;10.410;2022-09-13T02:50:33;10.80;;;6.83;;
10509;SDS011;5303;53.266;10.410;2022-09-13T02:56:00;8.90;;;7.53;;
10509;SDS011;5303;53.266;10.410;2022-09-13T03:01:30;8.33;;;7.43;;
10509;SDS011;5303;53.266;10.410;2022-09-13T03:03:57;8.30;;;7.27;;
10509;SDS011;5303;53.266;10.410;2022-09-13T03:06:23;9.10;;;7.40;;
10509;SDS011;5303;53.266;10.410;2022-09-13T03:08:51;11.10;;;8.10;;
10509;SDS011;5303;53.266;10.410;2022-09-13T03:16:38;10.53;;;7.97;;
10509;SDS011;5303;53.266;10.410;2022-09-13T03:19:27;9.73;;;7.87;;
10509;SDS011;5303;53.266;10.410;2022-09-13T03:24:51;9.30;;;7.73;;
10509;SDS011;5303;53.266;10.410;2022-09-13T03:27:52;10.13;;;7.90;;
10509;SDS011;5303;53.266;10.410;2022-09-13T03:30:18;9.37;;;8.37;;
10509;SDS011;5303;53.266;10.410;2022-09-13T03:33:02;10.00;;;8.33;;
10509;SDS011;5303;53.266;10.410;2022-09-13T03:35:43;11.17;;;8.57;;
10509;SDS011;5303;53.266;10.410;2022-09-13T03:43:15;13.30;;;8.77;;
10509;SDS011;5303;53.266;10.410;2022-09-13T03:45:50;10.77;;;8.40;;
10509;SDS011;5303;53.266;10.410;2022-09-13T03:48:18;11.07;;;9.47;;
10509;SDS011;5303;53.266;10.410;2022-09-13T03:50:45;9.90;;;8.40;;
10509;SDS011;5303;53.266;10.410;2022-09-13T03:53:12;10.53;;;9.20;;
10509;SDS011;5303;53.266;10.410;2022-09-13T03:55:42;11.43;;;8.60;;
10509;SDS011;5303;53.266;10.410;2022-09-13T03:58:11;11.87;;;9.50;;
10509;SDS011;5303;53.266;10.410;2022-09-13T04:00:37;11.83;;;8.80;;
10509;SDS011;5303;53.266;10.410;2022-09-13T04:03:04;9.60;;;8.00;;
10509;SDS011;5303;53.266;10.410;2022-09-13T04:05:30;10.17;;;9.10;;
10509;SDS011;5303;53.266;10.410;2022-09-13T04:07:55;9.63;;;8.50;;
10509;SDS011;5303;53.266;10.410;2022-09-13T04:10:21;10.13;;;9.03;;
10509;SDS011;5303;53.266;10.410;2022-09-13T04:12:48;11.93;;;8.97;;
10509;SDS011;5303;53.266;10.410;2022-09-13T04:15:13;10.13;;;8.97;;
10509;SDS011;5303;53.266;10.410;2022-09-13T04:17:39;10.63;;;9.23;;
10509;SDS011;5303;53.266;10.410;2022-09-13T04:20:04;11.47;;;9.07;;
10509;SDS011;5303;53.266;10.410;2022-09-13T04:22:30;12.73;;;9.30;;
10509;SDS011;5303;53.266;10.410;2022-09-13T04:24:55;10.80;;;9.03;;
10509;SDS011;5303;53.266;10.410;2022-09-13T04:27:20;13.13;;;9.53;;
10509;SDS011;5303;53.266;10.410;2022-09-13T04:29:46;12.63;;;9.57;;
10509;SDS011;5303;53.266;10.410;2022-09-13T04:32:12;10.57;;;9.47;;
10509;SDS011;5303;53.266;10.410;2022-09-13T04:34:38;11.23;;;9.57;;
10509;SDS011;5303;53.266;10.410;2022-09-13T04:37:03;11.77;;;9.57;;
10509;SDS011;5303;53.266;10.410;2022-09-13T04:39:29;11.87;;;10.43;;
10509;SDS011;5303;53.266;10.410;2022-09-13T04:41:54;12.17;;;9.93;;
10509;SDS011;5303;53.266;10.410;2022-09-13T04:44:19;10.70;;;9.53;;
10509;SDS011;5303;53.266;10.410;2022-09-13T04:46:47;13.10;;;10.43;;
10509;SDS011;5303;53.266;10.410;2022-09-13T04:49:13;11.37;;;9.90;;
10509;SDS011;5303;53.266;10.410;2022-09-13T04:51:39;13.60;;;10.13;;
10509;SDS011;5303;53.266;10.410;2022-09-13T04:54:05;13.63;;;10.00;;
10509;SDS011;5303;53.266;10.410;2022-09-13T04:56:30;11.63;;;10.37;;
10509;SDS011;5303;53.266;10.410;2022-09-13T04:58:55;14.47;;;9.93;;
10509;SDS011;5303;53.266;10.410;2022-09-13T05:01:21;12.53;;;10.90;;
10509;SDS011;5303;53.266;10.410;2022-09-13T05:03:47;14.67;;;10.90;;
10509;SDS011;5303;53.266;10.410;2022-09-13T05:06:15;11.30;;;10.10;;
10509;SDS011;5303;53.266;10.410;2022-09-13T05:08:48;11.67;;;10.47;;
10509;SDS011;5303;53.266;10.410;2022-09-13T05:11:16;12.10;;;9.27;;
10509;SDS011;5303;53.266;10.410;2022-09-13T05:13:41;15.80;;;11.17;;
10509;SDS011;5303;53.266;10.410;2022-09-13T05:16:07;12.57;;;9.90;;
10509;SDS011;5303;53.266;10.410;2022-09-13T05:18:33;12.10;;;10.70;;
10509;SDS011;5303;53.266;10.410;2022-09-13T05:21:01;13.77;;;10.40;;
10509;SDS011;5303;53.266;10.410;2022-09-13T05:23:29;13.67;;;11.23;;
10509;SDS011;5303;53.266;10.410;2022-09-13T05:25:56;11.60;;;10.40;;
10509;SDS011;5303;53.266;10.410;2022-09-13T05:28:27;15.17;;;11.03;;
10509;SDS011;5303;53.266;10.410;2022-09-13T05:31:01;13.53;;;11.07;;
10509;SDS011;5303;53.266;10.410;2022-09-13T05:33:28;12.27;;;10.37;;
10509;SDS011;5303;53.266;10.410;2022-09-13T05:35:56;13.40;;;10.37;;
10509;SDS011;5303;53.266;10.410;2022-09-13T05:38:22;13.13;;;11.10;;
10509;SDS011;5303;53.266;10.410;2022-09-13T05:40:47;13.13;;;10.97;;
10509;SDS011;5303;53.266;10.410;2022-09-13T05:43:19;14.40;;;11.67;;
10509;SDS011;5303;53.266;10.410;2022-09-13T05:45:44;12.43;;;11.13;;
10509;SDS011;5303;53.266;10.410;2022-09-13T05:48:09;15.07;;;11.67;;
10509;SDS011;5303;53.266;10.410;2022-09-13T05:50:38;13.57;;;11.80;;
10509;SDS011;5303;53.266;10.410;2022-09-13T05:53:03;17.57;;;12.87;;
10509;SDS011;5303;53.266;10.410;2022-09-13T05:55:29;15.97;;;12.43;;
10509;SDS011;5303;53.266;10.410;2022-09-13T05:57:55;14.67;;;11.83;;
10509;SDS011;5303;53.266;10.410;2022-09-13T06:00:20;12.27;;;10.93;;
10509;SDS011;5303;53.266;10.410;2022-09-13T06:02:45;15.93;;;13.27;;
10509;SDS011;5303;53.266;10.410;2022-09-13T06:05:11;16.13;;;12.57;;
10509;SDS011;5303;53.266;10.410;2022-09-13T06:07:38;15.40;;;12.90;;
10509;SDS011;5303;53.266;10.410;2022-09-13T06:10:05;13.10;;;11.60;;
10509;SDS011;5303;53.266;10.410;2022-09-13T06:12:31;13.97;;;11.90;;
10509;SDS011;5303;53.266;10.410;2022-09-13T06:14:57;15.03;;;11.37;;
10509;SDS011;5303;53.266;10.410;2022-09-13T06:17:22;16.87;;;13.20;;
10509;SDS011;5303;53.266;10.410;2022-09-13T06:19:47;15.33;;;12.23;;
10509;SDS011;5303;53.266;10.410;2022-09-13T06:22:13;15.83;;;13.67;;
10509;SDS011;5303;53.266;10.410;2022-09-13T06:24:38;18.10;;;14.00;;
10509;SDS011;5303;53.266;10.410;2022-09-13T06:27:03;17.73;;;14.13;;
10509;SDS011;5303;53.266;10.410;2022-09-13T06:29:29;19.43;;;14.80;;
10509;SDS011;5303;53.266;10.410;2022-09-13T06:31:55;16.17;;;13.13;;
10509;SDS011;5303;53.266;10.410;2022-09-13T06:34:20;17.07;;;13.80;;
10509;SDS011;5303;53.266;10.410;2022-09-13T06:36:45;20.30;;;14.90;;
10509;SDS011;5303;53.266;10.410;2022-09-13T06:39:11;17.57;;;14.67;;
10509;SDS011;5303;53.266;10.410;2022-09-13T06:41:36;23.43;;;16.57;;
10509;SDS011;5303;53.266;10.410;2022-09-13T06:44:02;20.53;;;15.63;;
10509;SDS011;5303;53.266;10.410;2022-09-13T06:46:28;19.97;;;15.73;;
10509;SDS011;5303;53.266;10.410;2022-09-13T06:48:57;20.77;;;15.43;;
10509;SDS011;5303;53.266;10.410;2022-09-13T06:51:24;18.07;;;14.50;;
10509;SDS011;5303;53.266;10.410;2022-09-13T06:53:50;24.10;;;16.10;;
10509;SDS011;5303;53.266;10.410;2022-09-13T06:56:18;19.53;;;15.43;;
10509;SDS011;5303;53.266;10.410;2022-09-13T06:58:46;20.77;;;15.43;;
10509;SDS011;5303;53.266;10.410;2022-09-13T07:01:14;18.90;;;14.30;;
10509;SDS011;5303;53.266;10.410;2022-09-13T07:03:45;19.40;;;15.23;;
10509;SDS011;5303;53.266;10.410;2022-09-13T07:06:13;21.10;;;15.77;;
10509;SDS011;5303;53.266;10.410;2022-09-13T07:08:39;20.57;;;15.97;;
10509;SDS011;5303;53.266;10.410;2022-09-13T07:11:05;19.87;;;15.67;;
10509;SDS011;5303;53.266;10.410;2022-09-13T07:13:31;17.77;;;14.60;;
10509;SDS011;5303;53.266;10.410;2022-09-13T07:16:00;19.20;;;14.37;;
10509;SDS011;5303;53.266;10.410;2022-09-13T07:18:26;19.83;;;15.53;;
10509;SDS011;5303;53.266;10.410;2022-09-13T07:20:52;21.17;;;16.10;;
10509;SDS011;5303;53.266;10.410;2022-09-13T07:23:24;20.60;;;15.10;;
10509;SDS011;5303;53.266;10.410;2022-09-13T07:25:53;19.17;;;14.73;;
10509;SDS011;5303;53.266;10.410;2022-09-13T07:28:19;22.17;;;16.40;;
10509;SDS011;5303;53.266;10.410;2022-09-13T07:30:44;20.70;;;16.43;;
10509;SDS011;5303;53.266;10.410;2022-09-13T07:33:09;20.47;;;15.80;;
10509;SDS011;5303;53.266;10.410;2022-09-13T07:35:35;19.77;;;15.83;;
10509;SDS011;5303;53.266;10.410;2022-09-13T07:38:00;21.73;;;15.73;;
10509;SDS011;5303;53.266;10.410;2022-09-13T07:40:25;19.53;;;15.13;;
10509;SDS011;5303;53.266;10.410;2022-09-13T07:42:50;18.20;;;14.93;;
10509;SDS011;5303;53.266;10.410;2022-09-13T07:45:16;21.30;;;15.97;;
10509;SDS011;5303;53.266;10.410;2022-09-13T07:47:41;18.63;;;15.43;;
10509;SDS011;5303;53.266;10.410;2022-09-13T07:50:06;20.37;;;15.40;;
10509;SDS011;5303;53.266;10.410;2022-09-13T07:52:32;23.33;;;16.77;;
10509;SDS011;5303;53.266;10.410;2022-09-13T07:55:01;18.20;;;15.07;;
10509;SDS011;5303;53.266;10.410;2022-09-13T07:57:26;23.00;;;16.23;;
10509;SDS011;5303;53.266;10.410;2022-09-13T07:59:52;19.00;;;16.03;;
10509;SDS011;5303;53.266;10.410;2022-09-13T08:02:17;19.23;;;14.93;;
10509;SDS011;5303;53.266;10.410;2022-09-13T08:04:42;17.07;;;14.73;;
10509;SDS011;5303;53.266;10.410;2022-09-13T08:07:07;18.63;;;15.07;;
10509;SDS011;5303;53.266;10.410;2022-09-13T08:09:33;17.90;;;15.10;;
10509;SDS011;5303;53.266;10.410;2022-09-13T08:11:58;21.63;;;15.17;;
10509;SDS011;5303;53.266;10.410;2022-09-13T08:14:23;19.07;;;14.73;;
10509;SDS011;5303;53.266;10.410;2022-09-13T08:16:49;18.93;;;15.17;;
10509;SDS011;5303;53.266;10.410;2022-09-13T08:19:15;17.50;;;14.47;;
10509;SDS011;5303;53.266;10.410;2022-09-13T08:21:43;19.43;;;14.30;;
10509;SDS011;5303;53.266;10.410;2022-09-13T08:24:13;18.23;;;13.93;;
10509;SDS011;5303;53.266;10.410;2022-09-13T08:26:41;18.40;;;13.13;;
10509;SDS011;5303;53.266;10.410;2022-09-13T08:29:06;18.33;;;12.80;;
10509;SDS011;5303;53.266;10.410;2022-09-13T08:31:32;15.13;;;12.53;;
10509;SDS011;5303;53.266;10.410;2022-09-13T08:33:58;15.90;;;12.73;;
10509;SDS011;5303;53.266;10.410;2022-09-13T08:36:24;14.03;;;11.97;;
10509;SDS011;5303;53.266;10.410;2022-09-13T08:38:54;16.20;;;11.50;;
10509;SDS011;5303;53.266;10.410;2022-09-13T08:46:49;17.63;;;12.57;;
10509;SDS011;5303;53.266;10.410;2022-09-13T08:49:19;14.73;;;11.53;;
10509;SDS011;5303;53.266;10.410;2022-09-13T08:51:49;13.17;;;11.07;;
10509;SDS011;5303;53.266;10.410;2022-09-13T08:54:18;14.03;;;11.10;;
10509;SDS011;5303;53.266;10.410;2022-09-13T08:56:57;13.53;;;11.00;;
10509;SDS011;5303;53.266;10.410;2022-09-13T08:59:43;13.60;;;10.90;;
10509;SDS011;5303;53.266;10.410;2022-09-13T09:05:21;16.67;;;11.10;;
10509;SDS011;5303;53.266;10.410;2022-09-13T09:10:18;14.97;;;10.00;;
10509;SDS011;5303;53.266;10.410;2022-09-13T09:12:47;12.57;;;8.80;;
10509;SDS011;5303;53.266;10.410;2022-09-13T09:15:19;13.57;;;9.23;;
10509;SDS011;5303;53.266;10.410;2022-09-13T09:20:20;13.47;;;9.83;;
10509;SDS011;5303;53.266;10.410;2022-09-13T09:22:50;13.37;;;10.00;;
10509;SDS011;5303;53.266;10.410;2022-09-13T09:25:23;12.80;;;9.57;;
10509;SDS011;5303;53.266;10.410;2022-09-13T09:27:50;12.30;;;9.70;;
10509;SDS011;5303;53.266;10.410;2022-09-13T09:30:17;12.67;;;10.27;;
10509;SDS011;5303;53.266;10.410;2022-09-13T09:35:42;10.67;;;9.33;;
10509;SDS011;5303;53.266;10.410;2022-09-13T09:40:42;11.70;;;8.10;;
10509;SDS011;5303;53.266;10.410;2022-09-13T09:43:30;10.93;;;8.10;;
10509;SDS011;5303;53.266;10.410;2022-09-13T09:45:57;7.57;;;6.40;;
10509;SDS011;5303;53.266;10.410;2022-09-13T09:48:27;8.87;;;5.90;;
10509;SDS011;5303;53.266;10.410;2022-09-13T09:50:59;9.77;;;5.30;;
10509;SDS011;5303;53.266;10.410;2022-09-13T09:53:32;8.83;;;4.43;;
10509;SDS011;5303;53.266;10.410;2022-09-13T09:56:19;9.57;;;4.33;;
10509;SDS011;5303;53.266;10.410;2022-09-13T09:58:47;8.67;;;4.57;;
10509;SDS011;5303;53.266;10.410;2022-09-13T10:01:26;7.07;;;4.07;;
10509;SDS011;5303;53.266;10.410;2022-09-13T10:04:00;9.20;;;3.70;;
10509;SDS011;5303;53.266;10.410;2022-09-13T10:06:27;6.43;;;3.77;;
10509;SDS011;5303;53.266;10.410;2022-09-13T10:08:58;7.57;;;3.40;;
10509;SDS011;5303;53.266;10.410;2022-09-13T10:11:36;10.93;;;3.77;;
10509;SDS011;5303;53.266;10.410;2022-09-13T10:14:03;7.33;;;3.57;;
10509;SDS011;5303;53.266;10.410;2022-09-13T10:16:28;8.10;;;3.30;;
10509;SDS011;5303;53.266;10.410;2022-09-13T10:19:14;5.63;;;2.80;;
10509;SDS011;5303;53.266;10.410;2022-09-13T10:22:00;7.63;;;2.67;;
10509;SDS011;5303;53.266;10.410;2022-09-13T10:24:27;5.37;;;2.20;;
10509;SDS011;5303;53.266;10.410;2022-09-13T10:26:53;7.53;;;2.57;;
10509;SDS011;5303;53.266;10.410;2022-09-13T10:29:19;4.60;;;2.33;;
10509;SDS011;5303;53.266;10.410;2022-09-13T10:31:47;8.43;;;2.37;;
10509;SDS011;5303;53.266;10.410;2022-09-13T10:34:19;6.13;;;2.07;;
10509;SDS011;5303;53.266;10.410;2022-09-13T10:39:22;3.87;;;2.00;;
10509;SDS011;5303;53.266;10.410;2022-09-13T10:41:50;5.97;;;2.20;;
10509;SDS011;5303;53.266;10.410;2022-09-13T10:44:31;4.70;;;2.20;;
10509;SDS011;5303;53.266;10.410;2022-09-13T10:47:05;6.33;;;2.87;;
10509;SDS011;5303;53.266;10.410;2022-09-13T10:52:20;5.73;;;2.10;;
10509;SDS011;5303;53.266;10.410;2022-09-13T10:54:47;5.20;;;1.73;;
10509;SDS011;5303;53.266;10.410;2022-09-13T10:57:28;3.83;;;2.00;;
10509;SDS011;5303;53.266;10.410;2022-09-13T10:59:58;5.33;;;2.10;;
10509;SDS011;5303;53.266;10.410;2022-09-13T11:08:24;5.80;;;2.03;;
10509;SDS011;5303;53.266;10.410;2022-09-13T11:11:10;5.67;;;2.07;;
10509;SDS011;5303;53.266;10.410;2022-09-13T11:16:36;4.83;;;1.90;;
10509;SDS011;5303;53.266;10.410;2022-09-13T11:19:31;6.53;;;2.17;;
10509;SDS011;5303;53.266;10.410;2022-09-13T11:24:51;6.57;;;1.83;;
10509;SDS011;5303;53.266;10.410;2022-09-13T11:27:33;3.47;;;1.90;;
10509;SDS011;5303;53.266;10.410;2022-09-13T11:30:19;4.93;;;1.90;;
10509;SDS011;5303;53.266;10.410;2022-09-13T11:38:44;4.90;;;1.63;;
10509;SDS011;5303;53.266;10.410;2022-09-13T11:41:22;6.87;;;1.67;;
10509;SDS011;5303;53.266;10.410;2022-09-13T11:47:01;5.33;;;1.60;;
10509;SDS011;5303;53.266;10.410;2022-09-13T11:52:21;5.73;;;1.80;;
10509;SDS011;5303;53.266;10.410;2022-09-13T11:57:58;4.43;;;1.57;;
10509;SDS011;5303;53.266;10.410;2022-09-13T12:00:29;7.20;;;1.60;;
10509;SDS011;5303;53.266;10.410;2022-09-13T12:05:27;4.23;;;1.50;;
10509;SDS011;5303;53.266;10.410;2022-09-13T12:08:03;4.83;;;1.40;;
10509;SDS011;5303;53.266;10.410;2022-09-13T12:13:39;3.70;;;1.37;;
10509;SDS011;5303;53.266;10.410;2022-09-13T12:16:12;3.13;;;1.47;;
10509;SDS011;5303;53.266;10.410;2022-09-13T12:18:45;3.00;;;1.40;;
10509;SDS011;5303;53.266;10.410;2022-09-13T12:21:16;5.03;;;1.60;;
10509;SDS011;5303;53.266;10.410;2022-09-13T12:23:53;7.53;;;1.67;;
10509;SDS011;5303;53.266;10.410;2022-09-13T12:26:30;4.90;;;1.60;;
10509;SDS011;5303;53.266;10.410;2022-09-13T12:32:02;3.63;;;1.70;;
10509;SDS011;5303;53.266;10.410;2022-09-13T12:37:37;4.53;;;1.77;;
10509;SDS011;5303;53.266;10.410;2022-09-13T12:46:09;5.43;;;1.73;;
10509;SDS011;5303;53.266;10.410;2022-09-13T12:57:09;4.53;;;1.87;;
10509;SDS011;5303;53.266;10.410;2022-09-13T13:05:26;5.73;;;1.87;;
10509;SDS011;5303;53.266;10.410;2022-09-13T13:08:37;3.73;;;1.70;;
10509;SDS011;5303;53.266;10.410;2022-09-13T13:10:44;4.90;;;1.80;;
10509;SDS011;5303;53.266;10.410;2022-09-13T13:13:27;4.27;;;1.40;;
10509;SDS011;5303;53.266;10.410;2022-09-13T13:19:25;4.67;;;1.50;;
10509;SDS011;5303;53.266;10.410;2022-09-13T13:25:52;4.60;;;1.63;;
10509;SDS011;5303;53.266;10.410;2022-09-13T13:28:01;3.63;;;1.60;;
10509;SDS011;5303;53.266;10.410;2022-09-13T13:30:38;6.83;;;1.63;;
10509;SDS011;5303;53.266;10.410;2022-09-13T13:33:16;4.70;;;1.53;;
10509;SDS011;5303;53.266;10.410;2022-09-13T13:35:41;6.43;;;1.80;;
10509;SDS011;5303;53.266;10.410;2022-09-13T13:38:29;4.90;;;1.60;;
10509;SDS011;5303;53.266;10.410;2022-09-13T13:46:40;4.63;;;1.73;;
10509;SDS011;5303;53.266;10.410;2022-09-13T13:54:31;5.13;;;1.93;;
10509;SDS011;5303;53.266;10.410;2022-09-13T14:00:22;4.27;;;1.60;;
10509;SDS011;5303;53.266;10.410;2022-09-13T14:16:59;4.73;;;1.30;;
10509;SDS011;5303;53.266;10.410;2022-09-13T14:24:53;5.13;;;1.47;;
10509;SDS011;5303;53.266;10.410;2022-09-13T14:27:22;3.00;;;1.30;;
10509;SDS011;5303;53.266;10.410;2022-09-13T14:29:49;5.50;;;1.73;;
10509;SDS011;5303;53.266;10.410;2022-09-13T14:32:27;7.37;;;1.83;;
10509;SDS011;5303;53.266;10.410;2022-09-13T14:35:04;4.80;;;1.60;;
10509;SDS011;5303;53.266;10.410;2022-09-13T14:37:49;3.17;;;1.50;;
10509;SDS011;5303;53.266;10.410;2022-09-13T14:40:20;5.33;;;1.87;;
10509;SDS011;5303;53.266;10.410;2022-09-13T14:42:50;4.40;;;1.77;;
10509;SDS011;5303;53.266;10.410;2022-09-13T14:45:21;3.80;;;1.50;;
10509;SDS011;5303;53.266;10.410;2022-09-13T14:47:52;5.17;;;1.63;;
10509;SDS011;5303;53.266;10.410;2022-09-13T14:50:26;3.83;;;1.63;;
10509;SDS011;5303;53.266;10.410;2022-09-13T14:52:56;7.40;;;2.27;;
10509;SDS011;5303;53.266;10.410;2022-09-13T14:55:32;5.63;;;1.53;;
10509;SDS011;5303;53.266;10.410;2022-09-13T14:58:06;4.80;;;1.40;;
10509;SDS011;5303;53.266;10.410;2022-09-13T15:00:55;5.00;;;1.50;;
10509;SDS011;5303;53.266;10.410;2022-09-13T15:03:24;4.20;;;1.50;;
10509;SDS011;5303;53.266;10.410;2022-09-13T15:05:51;4.63;;;1.30;;
10509;SDS011;5303;53.266;10.410;2022-09-13T15:08:24;8.00;;;1.60;;
10509;SDS011;5303;53.266;10.410;2022-09-13T15:10:50;5.93;;;1.40;;
10509;SDS011;5303;53.266;10.410;2022-09-13T15:13:15;3.67;;;1.37;;
10509;SDS011;5303;53.266;10.410;2022-09-13T15:15:44;4.83;;;1.60;;
10509;SDS011;5303;53.266;10.410;2022-09-13T15:21:00;5.57;;;1.67;;
10509;SDS011;5303;53.266;10.410;2022-09-13T15:28:30;4.90;;;1.50;;
10509;SDS011;5303;53.266;10.410;2022-09-13T15:30:58;5.50;;;1.50;;
10509;SDS011;5303;53.266;10.410;2022-09-13T15:33:28;4.20;;;1.57;;
10509;SDS011;5303;53.266;10.410;2022-09-13T15:39:00;2.70;;;1.20;;
10509;SDS011;5303;53.266;10.410;2022-09-13T15:41:29;5.50;;;1.60;;
10509;SDS011;5303;53.266;10.410;2022-09-13T15:44:00;5.00;;;1.50;;
10509;SDS011;5303;53.266;10.410;2022-09-13T15:46:27;4.60;;;1.70;;
10509;SDS011;5303;53.266;10.410;2022-09-13T15:48:54;6.53;;;2.30;;
10509;SDS011;5303;53.266;10.410;2022-09-13T15:51:22;6.40;;;1.77;;
10509;SDS011;5303;53.266;10.410;2022-09-13T15:53:47;4.80;;;1.50;;
10509;SDS011;5303;53.266;10.410;2022-09-13T15:56:17;3.57;;;1.60;;
10509;SDS011;5303;53.266;10.410;2022-09-13T15:58:45;4.13;;;1.60;;
10509;SDS011;5303;53.266;10.410;2022-09-13T16:01:11;6.50;;;2.40;;
10509;SDS011;5303;53.266;10.410;2022-09-13T16:03:37;6.60;;;2.43;;
10509;SDS011;5303;53.266;10.410;2022-09-13T16:06:03;9.37;;;2.60;;
10509;SDS011;5303;53.266;10.410;2022-09-13T16:08:31;8.07;;;2.17;;
10509;SDS011;5303;53.266;10.410;2022-09-13T16:10:56;9.97;;;2.50;;
10509;SDS011;5303;53.266;10.410;2022-09-13T16:13:21;8.40;;;2.30;;
10509;SDS011;5303;53.266;10.410;2022-09-13T16:15:47;6.40;;;2.10;;
10509;SDS011;5303;53.266;10.410;2022-09-13T16:18:13;6.93;;;2.20;;
10509;SDS011;5303;53.266;10.410;2022-09-13T16:20:39;6.43;;;2.10;;
10509;SDS011;5303;53.266;10.410;2022-09-13T16:23:04;5.77;;;1.93;;
10509;SDS011;5303;53.266;10.410;2022-09-13T16:25:30;6.57;;;2.13;;
10509;SDS011;5303;53.266;10.410;2022-09-13T16:27:55;7.20;;;2.60;;
10509;SDS011;5303;53.266;10.410;2022-09-13T16:30:21;7.03;;;2.20;;
10509;SDS011;5303;53.266;10.410;2022-09-13T16:32:46;6.50;;;2.10;;
10509;SDS011;5303;53.266;10.410;2022-09-13T16:35:13;9.33;;;2.23;;
10509;SDS011;5303;53.266;10.410;2022-09-13T16:37:41;6.73;;;1.90;;
10509;SDS011;5303;53.266;10.410;2022-09-13T16:40:07;7.73;;;2.20;;
10509;SDS011;5303;53.266;10.410;2022-09-13T16:42:34;10.57;;;2.40;;
10509;SDS011;5303;53.266;10.410;2022-09-13T16:44:59;6.43;;;2.00;;
10509;SDS011;5303;53.266;10.410;2022-09-13T16:47:24;5.40;;;1.87;;
10509;SDS011;5303;53.266;10.410;2022-09-13T16:49:50;8.73;;;2.23;;
10509;SDS011;5303;53.266;10.410;2022-09-13T16:52:15;9.60;;;2.00;;
10509;SDS011;5303;53.266;10.410;2022-09-13T16:54:41;8.77;;;2.37;;
10509;SDS011;5303;53.266;10.410;2022-09-13T16:57:06;7.00;;;2.40;;
10509;SDS011;5303;53.266;10.410;2022-09-13T16:59:34;7.03;;;2.30;;
10509;SDS011;5303;53.266;10.410;2022-09-13T17:01:59;7.13;;;2.13;;
10509;SDS011;5303;53.266;10.410;2022-09-13T17:04:25;4.37;;;1.90;;
10509;SDS011;5303;53.266;10.410;2022-09-13T17:06:50;7.03;;;2.20;;
10509;SDS011;5303;53.266;10.410;2022-09-13T17:09:15;5.67;;;2.10;;
10509;SDS011;5303;53.266;10.410;2022-09-13T17:11:43;7.57;;;2.47;;
10509;SDS011;5303;53.266;10.410;2022-09-13T17:14:09;6.77;;;2.13;;
10509;SDS011;5303;53.266;10.410;2022-09-13T17:16:43;4.37;;;1.90;;
10509;SDS011;5303;53.266;10.410;2022-09-13T17:19:11;7.27;;;2.23;;
10509;SDS011;5303;53.266;10.410;2022-09-13T17:21:38;6.80;;;2.20;;
10509;SDS011;5303;53.266;10.410;2022-09-13T17:24:04;9.77;;;2.40;;
10509;SDS011;5303;53.266;10.410;2022-09-13T17:26:30;6.97;;;2.03;;
10509;SDS011;5303;53.266;10.410;2022-09-13T17:28:55;9.37;;;2.10;;
10509;SDS011;5303;53.266;10.410;2022-09-13T17:31:20;8.60;;;2.43;;
10509;SDS011;5303;53.266;10.410;2022-09-13T17:33:46;9.60;;;2.40;;
10509;SDS011;5303;53.266;10.410;2022-09-13T17:36:12;11.43;;;2.40;;
10509;SDS011;5303;53.266;10.410;2022-09-13T17:38:38;10.00;;;2.27;;
10509;SDS011;5303;53.266;10.410;2022-09-13T17:41:06;9.73;;;2.40;;
10509;SDS011;5303;53.266;10.410;2022-09-13T17:43:35;5.47;;;1.97;;
10509;SDS011;5303;53.266;10.410;2022-09-13T17:46:05;7.87;;;2.60;;
10509;SDS011;5303;53.266;10.410;2022-09-13T17:48:32;7.23;;;2.00;;
10509;SDS011;5303;53.266;10.410;2022-09-13T17:51:02;5.70;;;1.90;;
10509;SDS011;5303;53.266;10.410;2022-09-13T17:53:29;7.80;;;2.30;;
10509;SDS011;5303;53.266;10.410;2022-09-13T17:55:55;7.63;;;2.20;;